Time;durP1;ratioP1;P1;durP2;ratioP2;P2;SDS_P1;SDS_P2;PMS_P1;PMS_P2;Temp;Humidity;BMP_temperature;BMP_pressure;BME280_temperature;BME280_humidity;BME280_pressure;Samples;Min_cycle;Max_cycle;Signal;HPM_P1;HPM_P2
2021/12/14 00:02:27;;;;;;;11.32;10.05;;;8.80;99.90;;;;;;5096458;28;20136;-63
2021/12/14 00:04:54;;;;;;;14.00;10.63;;;8.80;99.90;;;;;;5095449;27;20389;-64
2021/12/14 00:07:22;;;;;;;12.88;9.95;;;8.70;99.90;;;;;;5097308;28;20106;-63
2021/12/14 00:09:49;;;;;;;14.90;10.25;;;8.70;99.90;;;;;;5096168;28;20539;-64
2021/12/14 00:12:55;;;;;;;13.90;9.38;;;8.70;99.90;;;;;;5126719;27;20096;-64
2021/12/14 00:15:33;;;;;;;13.00;10.30;;;8.70;99.90;;;;;;5094929;27;20050;-63
2021/12/14 00:18:03;;;;;;;12.80;9.57;;;8.80;99.90;;;;;;5096263;28;20039;-63
2021/12/14 00:20:37;;;;;;;11.73;9.65;;;8.80;99.90;;;;;;5095896;28;20040;-63
2021/12/14 00:25:38;;;;;;;13.88;10.50;;;8.70;99.90;;;;;;5095053;28;20048;-64
2021/12/14 00:28:10;;;;;;;12.70;10.13;;;8.80;99.90;;;;;;5111200;27;20036;-64
2021/12/14 00:30:36;;;;;;;15.43;11.02;;;8.80;99.90;;;;;;5096182;27;20034;-64
2021/12/14 00:33:06;;;;;;;12.30;10.00;;;8.80;99.90;;;;;;5125698;27;20532;-63
2021/12/14 00:35:31;;;;;;;12.63;10.70;;;8.80;99.90;;;;;;5095856;28;20165;-64
2021/12/14 00:37:58;;;;;;;14.77;11.30;;;8.70;99.90;;;;;;5097520;28;20126;-63
2021/12/14 00:40:35;;;;;;;12.82;10.43;;;8.70;99.90;;;;;;5110938;27;20040;-63
2021/12/14 00:43:01;;;;;;;13.23;11.43;;;8.80;99.90;;;;;;5097140;28;20032;-63
2021/12/14 00:45:30;;;;;;;16.65;11.82;;;8.80;99.90;;;;;;5096086;28;20076;-63
2021/12/14 00:47:56;;;;;;;13.30;11.73;;;8.70;99.90;;;;;;5096346;28;20047;-64
2021/12/14 00:50:28;;;;;;;17.42;13.05;;;8.70;99.90;;;;;;5095651;28;20040;-63
2021/12/14 00:52:54;;;;;;;14.65;11.43;;;8.80;99.90;;;;;;5093946;28;20393;-63
2021/12/14 00:55:25;;;;;;;13.70;11.38;;;8.70;99.90;;;;;;5095213;28;20040;-63
2021/12/14 00:57:52;;;;;;;17.25;12.77;;;8.80;99.90;;;;;;5096604;27;20100;-64
2021/12/14 01:00:23;;;;;;;15.98;13.07;;;8.70;99.90;;;;;;5117343;27;20599;-63
2021/12/14 01:02:49;;;;;;;14.70;13.18;;;8.80;99.90;;;;;;5080103;28;20044;-64
2021/12/14 01:05:20;;;;;;;16.45;12.95;;;8.80;99.90;;;;;;5083622;28;20036;-64
2021/12/14 01:07:46;;;;;;;15.55;13.10;;;8.70;99.90;;;;;;5107180;27;20054;-64
2021/12/14 01:10:21;;;;;;;21.23;13.43;;;8.80;99.90;;;;;;5091041;28;20043;-63
2021/12/14 01:12:51;;;;;;;16.50;13.35;;;8.70;99.90;;;;;;5092920;28;20228;-63
2021/12/14 01:15:29;;;;;;;14.98;13.32;;;8.80;99.90;;;;;;5094180;28;20044;-64
2021/12/14 01:21:19;;;;;;;18.00;13.93;;;8.70;99.90;;;;;;5073772;27;20131;-63
2021/12/14 01:23:46;;;;;;;15.63;14.02;;;8.70;99.90;;;;;;5095346;28;20490;-64
2021/12/14 01:26:16;;;;;;;16.75;15.05;;;8.70;99.90;;;;;;5095170;28;20881;-63
2021/12/14 01:28:44;;;;;;;17.60;14.18;;;8.70;99.90;;;;;;5093411;28;20938;-63
2021/12/14 01:31:24;;;;;;;18.05;14.15;;;8.60;99.90;;;;;;5126137;27;20398;-64
2021/12/14 01:33:54;;;;;;;16.77;14.52;;;8.70;99.90;;;;;;5096750;28;20050;-64
2021/12/14 01:36:29;;;;;;;17.23;15.00;;;8.70;99.90;;;;;;5092382;28;20071;-64
2021/12/14 01:39:21;;;;;;;18.17;16.27;;;8.70;99.90;;;;;;5097111;28;20043;-64
2021/12/14 01:41:48;;;;;;;17.88;15.15;;;8.70;99.90;;;;;;5095424;28;20039;-64
2021/12/14 01:44:14;;;;;;;18.45;15.25;;;8.70;99.90;;;;;;5126340;27;20148;-64
2021/12/14 01:46:45;;;;;;;23.67;15.13;;;8.70;99.90;;;;;;5094373;28;20027;-64
2021/12/14 01:49:14;;;;;;;16.35;14.75;;;8.70;99.90;;;;;;5093604;28;20051;-63
2021/12/14 01:51:44;;;;;;;16.65;14.80;;;8.70;99.90;;;;;;5095673;27;20043;-64
2021/12/14 01:54:13;;;;;;;19.23;15.40;;;8.70;99.90;;;;;;5097350;28;20044;-64
2021/12/14 01:56:39;;;;;;;17.95;14.82;;;8.70;99.90;;;;;;5092079;28;20065;-63
2021/12/14 01:59:16;;;;;;;21.08;15.32;;;8.70;99.90;;;;;;5126218;27;20035;-63
2021/12/14 02:01:54;;;;;;;18.02;16.23;;;8.70;99.90;;;;;;5095746;28;20529;-64
2021/12/14 02:04:22;;;;;;;19.10;16.60;;;8.70;99.90;;;;;;5095362;28;20032;-64
2021/12/14 02:06:58;;;;;;;18.05;16.23;;;8.70;99.90;;;;;;5093044;28;20588;-64
2021/12/14 02:09:24;;;;;;;;;;;8.70;99.90;;;;;;5095041;28;20046;-63
2021/12/14 02:11:53;;;;;;;22.52;15.50;;;8.70;99.90;;;;;;5095098;28;19920;-63
2021/12/14 02:14:20;;;;;;;18.08;16.10;;;8.70;99.90;;;;;;5094730;28;20088;-64
2021/12/14 02:16:55;;;;;;;18.40;16.48;;;8.70;99.90;;;;;;5096382;27;20094;-64
2021/12/14 02:19:21;;;;;;;17.90;15.13;;;8.60;99.90;;;;;;5092265;28;20453;-63
2021/12/14 02:21:49;;;;;;;20.75;15.55;;;8.60;99.90;;;;;;5094713;28;20048;-64
2021/12/14 02:24:19;;;;;;;20.48;16.80;;;8.60;99.90;;;;;;5094753;28;20040;-64
2021/12/14 02:26:46;;;;;;;18.27;16.30;;;8.60;99.90;;;;;;5097289;27;20374;-64
2021/12/14 02:29:25;;;;;;;18.27;15.95;;;8.70;99.90;;;;;;5098068;28;20406;-64
2021/12/14 02:31:51;;;;;;;22.38;16.38;;;8.60;99.90;;;;;;5099189;28;20028;-64
2021/12/14 02:34:17;;;;;;;22.10;17.25;;;8.60;99.90;;;;;;5100926;28;20131;-63
2021/12/14 02:36:46;;;;;;;18.67;16.75;;;8.60;99.90;;;;;;5110657;27;20127;-64
2021/12/14 02:39:46;;;;;;;19.10;16.33;;;8.60;99.90;;;;;;5097020;28;20047;-64
2021/12/14 02:42:24;;;;;;;18.30;16.02;;;8.60;99.90;;;;;;5097683;28;20043;-63
2021/12/14 02:44:52;;;;;;;18.02;16.15;;;8.60;99.90;;;;;;5095857;28;20052;-64
2021/12/14 02:47:19;;;;;;;19.63;16.98;;;8.60;99.90;;;;;;5096503;28;20032;-64
2021/12/14 02:49:45;;;;;;;20.63;16.70;;;8.60;99.90;;;;;;5128675;27;20051;-63
2021/12/14 02:52:24;;;;;;;19.60;17.15;;;8.60;99.90;;;;;;5096357;28;20157;-64
2021/12/14 02:54:53;;;;;;;20.60;18.27;;;8.60;99.90;;;;;;5098926;28;20492;-63
2021/12/14 02:57:24;;;;;;;21.90;19.08;;;8.60;99.90;;;;;;5100742;27;20043;-63
2021/12/14 02:59:51;;;;;;;22.35;18.20;;;8.60;99.90;;;;;;5099864;28;20409;-64
2021/12/14 03:02:29;;;;;;;22.98;18.88;;;8.50;99.90;;;;;;5102906;28;20100;-63
2021/12/14 03:04:58;;;;;;;21.80;17.98;;;8.50;99.90;;;;;;5104734;27;20561;-63
2021/12/14 03:07:27;;;;;;;20.38;18.20;;;8.60;99.90;;;;;;5123641;27;20036;-64
2021/12/14 03:10:19;;;;;;;27.05;20.85;;;8.60;99.90;;;;;;5092192;28;20114;-63
2021/12/14 03:12:50;;;;;;;22.75;19.02;;;8.60;99.90;;;;;;5095799;27;20049;-64
2021/12/14 03:15:24;;;;;;;26.60;20.88;;;8.60;99.90;;;;;;5093725;27;20044;-63
2021/12/14 03:17:53;;;;;;;24.33;19.08;;;8.60;99.90;;;;;;5095869;28;20057;-64
2021/12/14 03:20:23;;;;;;;29.38;20.65;;;8.60;99.90;;;;;;5094890;27;21541;-63
2021/12/14 03:22:58;;;;;;;24.15;19.92;;;8.60;99.90;;;;;;5093647;28;20897;-63
2021/12/14 03:25:24;;;;;;;30.50;22.00;;;8.50;99.90;;;;;;5099299;27;20135;-64
2021/12/14 03:27:51;;;;;;;25.63;22.10;;;8.50;99.90;;;;;;5094029;28;20031;-63
2021/12/14 03:30:26;;;;;;;25.38;21.15;;;8.50;99.90;;;;;;5093128;28;20624;-64
2021/12/14 03:32:54;;;;;;;32.70;22.40;;;8.50;99.90;;;;;;5099704;28;20604;-64
2021/12/14 03:35:33;;;;;;;28.83;23.15;;;8.50;99.90;;;;;;5093925;27;20610;-63
2021/12/14 03:38:09;;;;;;;25.02;21.83;;;8.50;99.90;;;;;;5125001;27;20052;-63
2021/12/14 03:40:35;;;;;;;29.38;21.85;;;8.50;99.90;;;;;;5096696;28;20046;-64
2021/12/14 03:43:00;;;;;;;28.45;23.27;;;8.50;99.90;;;;;;5122931;27;20047;-64
2021/12/14 03:45:26;;;;;;;28.00;21.58;;;8.50;99.90;;;;;;5093669;27;20119;-63
2021/12/14 03:47:56;;;;;;;30.42;23.38;;;8.50;99.90;;;;;;5096309;27;20097;-63
2021/12/14 03:50:40;;;;;;;26.80;22.83;;;8.50;99.90;;;;;;5093504;27;20051;-64
2021/12/14 03:53:08;;;;;;;31.73;24.02;;;8.50;99.90;;;;;;5124453;27;20042;-63
2021/12/14 03:55:38;;;;;;;29.23;23.73;;;8.40;99.90;;;;;;5093649;27;20136;-63
2021/12/14 03:58:14;;;;;;;33.00;24.13;;;8.40;99.90;;;;;;5091236;28;20051;-64
2021/12/14 04:00:51;;;;;;;32.45;24.52;;;8.50;99.90;;;;;;5125615;27;20047;-63
2021/12/14 04:03:18;;;;;;;30.35;25.77;;;8.50;99.90;;;;;;5094573;27;20190;-63
2021/12/14 04:05:46;;;;;;;31.27;23.60;;;8.40;99.90;;;;;;5090983;27;20043;-64
2021/12/14 04:08:14;;;;;;;30.25;24.92;;;8.40;99.90;;;;;;5094331;28;20113;-63
2021/12/14 04:10:43;;;;;;;31.02;25.23;;;8.40;99.90;;;;;;5092927;28;20039;-64
2021/12/14 04:13:16;;;;;;;33.28;25.42;;;8.50;99.90;;;;;;5093643;28;20070;-63
2021/12/14 04:15:42;;;;;;;29.42;24.55;;;8.40;99.90;;;;;;5093221;28;20489;-63
2021/12/14 04:18:08;;;;;;;33.85;26.25;;;8.90;99.90;;;;;;5095867;28;20043;-63
2021/12/14 04:20:37;;;;;;;29.77;24.75;;;8.40;99.90;;;;;;5095524;27;20051;-63
2021/12/14 04:23:09;;;;;;;31.20;25.60;;;8.40;99.90;;;;;;5125546;27;20054;-64
2021/12/14 04:25:35;;;;;;;33.58;25.60;;;8.40;99.90;;;;;;5093643;28;20047;-63
2021/12/14 04:28:06;;;;;;;35.85;27.10;;;8.40;99.90;;;;;;5094678;27;20028;-63
2021/12/14 04:30:33;;;;;;;29.15;24.10;;;8.40;99.90;;;;;;5120952;27;20105;-63
2021/12/14 04:33:03;;;;;;;30.88;23.98;;;8.40;99.90;;;;;;5111287;27;20127;-63
2021/12/14 04:35:34;;;;;;;30.45;25.67;;;8.40;99.90;;;;;;5090121;28;20047;-63
2021/12/14 04:38:07;;;;;;;32.42;27.20;;;8.40;99.90;;;;;;5094781;28;20123;-64
2021/12/14 04:52:12;;;;;;;32.03;25.55;;;8.40;99.90;;;;;;5100538;28;20135;-64
2021/12/14 04:54:54;;;;;;;31.83;26.50;;;8.40;99.90;;;;;;5131502;27;20043;-63
2021/12/14 04:57:23;;;;;;;30.63;25.60;;;8.40;99.90;;;;;;5128180;27;20036;-63
2021/12/14 04:59:50;;;;;;;32.20;25.95;;;8.40;99.90;;;;;;5098591;27;20042;-64
2021/12/14 05:02:25;;;;;;;35.85;28.50;;;8.40;99.90;;;;;;5097327;28;20038;-63
2021/12/14 05:04:53;;;;;;;29.02;25.90;;;8.40;99.90;;;;;;5104120;28;20075;-64
2021/12/14 05:09:56;;;;;;;33.47;26.65;;;8.40;99.90;;;;;;5101652;28;20051;-64
2021/12/14 05:12:28;;;;;;;31.25;26.60;;;8.40;99.90;;;;;;5100390;27;20036;-64
2021/12/14 05:14:55;;;;;;;34.83;27.33;;;8.40;99.90;;;;;;5100015;27;20092;-63
2021/12/14 05:17:31;;;;;;;36.33;28.35;;;8.30;99.90;;;;;;5095035;28;20505;-63
2021/12/14 05:19:57;;;;;;;31.98;26.02;;;8.30;99.90;;;;;;5095424;28;20040;-63
2021/12/14 05:22:32;;;;;;;33.33;27.08;;;8.30;99.90;;;;;;5096350;27;20043;-64
2021/12/14 05:25:05;;;;;;;33.47;28.40;;;8.30;99.90;;;;;;5095812;28;21065;-64
2021/12/14 05:27:35;;;;;;;33.83;27.20;;;8.30;99.90;;;;;;5098917;28;20059;-64
2021/12/14 05:30:27;;;;;;;33.72;27.10;;;8.30;99.90;;;;;;5092996;28;20036;-64
2021/12/14 05:32:59;;;;;;;35.08;27.52;;;8.30;99.90;;;;;;5128486;27;20047;-64
2021/12/14 05:35:25;;;;;;;34.45;27.27;;;8.30;99.90;;;;;;5098637;28;20094;-64
2021/12/14 05:37:53;;;;;;;31.90;26.85;;;8.30;99.90;;;;;;5093259;28;20040;-64
2021/12/14 05:40:38;;;;;;;33.25;27.75;;;8.30;99.90;;;;;;5090535;27;20525;-64
2021/12/14 05:43:10;;;;;;;33.92;27.70;;;8.30;99.90;;;;;;5090556;28;20051;-64
2021/12/14 05:45:44;;;;;;;34.72;28.20;;;8.30;99.90;;;;;;5126364;27;20079;-64
2021/12/14 05:48:18;;;;;;;33.88;27.80;;;8.30;99.90;;;;;;5096289;28;20085;-64
2021/12/14 05:50:46;;;;;;;33.88;28.05;;;8.40;99.90;;;;;;5094291;28;20738;-64
2021/12/14 05:53:30;;;;;;;33.55;28.83;;;8.40;99.90;;;;;;5098388;28;20478;-64
2021/12/14 05:55:57;;;;;;;36.53;30.92;;;8.40;99.90;;;;;;5094656;28;20036;-64
2021/12/14 05:58:24;;;;;;;35.65;29.02;;;8.30;99.90;;;;;;5091031;27;20054;-64
2021/12/14 06:00:54;;;;;;;39.38;30.55;;;8.30;99.90;;;;;;5079068;28;20046;-64
2021/12/14 06:03:29;;;;;;;33.70;29.50;;;8.30;99.90;;;;;;5091086;28;20064;-64
2021/12/14 06:05:56;;;;;;;33.58;28.33;;;8.30;99.90;;;;;;5092211;27;20486;-64
2021/12/14 06:08:27;;;;;;;37.22;29.25;;;8.30;99.90;;;;;;5123936;27;21451;-63
2021/12/14 06:10:54;;;;;;;38.67;32.58;;;8.30;99.90;;;;;;5099057;28;20089;-64
2021/12/14 06:13:20;;;;;;;35.92;31.83;;;8.40;99.90;;;;;;5078304;28;20054;-64
2021/12/14 06:15:46;;;;;;;37.55;32.00;;;8.30;99.90;;;;;;5093744;28;20036;-64
2021/12/14 06:18:20;;;;;;;40.25;32.53;;;8.30;99.90;;;;;;5128659;27;20501;-64
2021/12/14 06:20:46;;;;;;;43.60;32.38;;;8.30;99.90;;;;;;5094606;28;20047;-64
2021/12/14 06:23:30;;;;;;;42.10;33.13;;;8.40;99.90;;;;;;5094666;28;20093;-64
2021/12/14 06:25:56;;;;;;;41.78;34.63;;;8.30;99.90;;;;;;5094251;28;20252;-64
2021/12/14 06:28:24;;;;;;;41.65;34.25;;;8.30;99.90;;;;;;5092399;28;20035;-64
2021/12/14 06:30:50;;;;;;;40.63;32.90;;;8.30;99.90;;;;;;5125100;27;20060;-63
2021/12/14 06:33:16;;;;;;;46.45;34.63;;;8.30;99.90;;;;;;5115727;27;20078;-64
2021/12/14 06:35:47;;;;;;;43.80;32.88;;;8.30;99.90;;;;;;5127730;27;20039;-64
2021/12/14 06:38:28;;;;;;;43.05;33.95;;;8.30;99.90;;;;;;5094665;28;20044;-64
2021/12/14 06:40:56;;;;;;;44.63;34.97;;;8.30;99.90;;;;;;5126760;27;20052;-64
2021/12/14 06:43:29;;;;;;;43.00;34.58;;;8.30;99.90;;;;;;5096143;28;20039;-64
2021/12/14 06:46:06;;;;;;;45.58;36.28;;;8.30;99.90;;;;;;5095194;28;20082;-64
2021/12/14 06:48:51;;;;;;;47.92;34.97;;;8.30;99.90;;;;;;5095467;28;20044;-64
2021/12/14 06:51:26;;;;;;;48.70;36.40;;;8.30;99.90;;;;;;5095790;28;20138;-63
2021/12/14 06:54:08;;;;;;;47.92;36.92;;;8.30;99.90;;;;;;5122742;27;20040;-64
2021/12/14 06:56:35;;;;;;;41.30;35.35;;;8.30;99.90;;;;;;5095611;28;20035;-63
2021/12/14 06:59:08;;;;;;;45.03;35.40;;;8.30;99.90;;;;;;5091350;28;20043;-63
2021/12/14 07:01:37;;;;;;;40.53;33.25;;;8.40;99.90;;;;;;5093427;28;20040;-62
2021/12/14 07:04:13;;;;;;;46.75;36.60;;;8.40;99.90;;;;;;5090671;28;20040;-63
2021/12/14 07:06:46;;;;;;;46.25;37.25;;;8.30;99.90;;;;;;5094219;28;20035;-62
2021/12/14 07:09:25;;;;;;;44.47;36.38;;;8.40;99.90;;;;;;5094868;28;20093;-63
2021/12/14 07:12:06;;;;;;;40.00;34.97;;;8.40;99.90;;;;;;5096960;28;20168;-63
2021/12/14 07:14:31;;;;;;;44.90;35.60;;;8.40;99.90;;;;;;5096276;28;20171;-63
2021/12/14 07:17:09;;;;;;;44.65;35.35;;;8.40;99.90;;;;;;5093305;28;20456;-63
2021/12/14 07:19:49;;;;;;;43.65;34.78;;;8.40;99.90;;;;;;5095932;28;20059;-63
2021/12/14 07:22:33;;;;;;;46.25;37.28;;;8.40;99.90;;;;;;5095230;28;20138;-63
2021/12/14 07:25:15;;;;;;;49.42;37.72;;;8.40;99.90;;;;;;5098166;28;20150;-63
2021/12/14 07:27:44;;;;;;;46.67;36.35;;;8.40;99.90;;;;;;5093742;28;20049;-63
2021/12/14 07:30:18;;;;;;;45.05;36.22;;;8.40;99.90;;;;;;5097660;28;20067;-63
2021/12/14 07:33:00;;;;;;;41.92;36.20;;;8.40;99.90;;;;;;5097903;28;20040;-63
2021/12/14 07:35:50;;;;;;;47.92;37.28;;;8.40;99.90;;;;;;5096081;28;20089;-63
2021/12/14 07:38:16;;;;;;;46.83;36.22;;;8.40;99.90;;;;;;5092721;28;20047;-64
2021/12/14 07:40:44;;;;;;;47.35;38.47;;;8.40;99.90;;;;;;5096854;28;20043;-63
2021/12/14 07:43:32;;;;;;;54.47;40.10;;;8.40;99.90;;;;;;5099784;28;20491;-63
2021/12/14 07:45:59;;;;;;;49.25;40.47;;;8.40;99.90;;;;;;5097693;27;20492;-63
2021/12/14 07:48:45;;;;;;;50.78;39.63;;;8.40;99.90;;;;;;5129709;27;20126;-63
2021/12/14 07:51:12;;;;;;;52.08;39.67;;;8.40;99.90;;;;;;5099788;27;20043;-63
2021/12/14 07:53:42;;;;;;;54.45;40.03;;;8.40;99.90;;;;;;5099161;27;20424;-63
2021/12/14 07:56:20;;;;;;;52.38;39.10;;;8.40;99.90;;;;;;5099686;28;20051;-63
2021/12/14 07:58:47;;;;;;;51.65;40.25;;;8.40;99.90;;;;;;5099814;28;20036;-64
2021/12/14 08:01:14;;;;;;;52.53;40.35;;;8.40;99.90;;;;;;5097668;28;20056;-63
2021/12/14 08:03:41;;;;;;;55.45;40.85;;;8.40;99.90;;;;;;5096248;28;20051;-63
2021/12/14 08:06:10;;;;;;;60.25;42.35;;;8.40;99.90;;;;;;5096470;28;20047;-63
2021/12/14 08:08:45;;;;;;;55.20;40.28;;;8.40;99.90;;;;;;5097841;28;20047;-63
2021/12/14 08:13:55;;;;;;;56.83;40.45;;;8.40;99.90;;;;;;5097238;28;20082;-63
2021/12/14 08:16:21;;;;;;;57.17;40.53;;;8.40;99.90;;;;;;5100732;28;20059;-63
2021/12/14 08:18:47;;;;;;;56.30;40.30;;;8.40;99.90;;;;;;5093367;28;20036;-63
2021/12/14 08:21:23;;;;;;;55.70;41.40;;;8.40;99.90;;;;;;5098316;28;20566;-63
2021/12/14 08:23:52;;;;;;;48.83;39.97;;;8.40;99.90;;;;;;5097690;28;20070;-63
2021/12/14 08:26:38;;;;;;;57.55;41.38;;;8.50;99.90;;;;;;5095769;28;20174;-63
2021/12/14 08:29:26;;;;;;;50.08;38.55;;;8.40;99.90;;;;;;5129031;27;20056;-63
2021/12/14 08:31:54;;;;;;;55.45;40.13;;;8.50;99.90;;;;;;5095665;28;20040;-63
2021/12/14 08:34:28;;;;;;;56.78;40.03;;;8.50;99.90;;;;;;5097886;28;20031;-63
2021/12/14 08:37:10;;;;;;;50.90;39.15;;;8.50;99.90;;;;;;5129917;27;20130;-63
2021/12/14 08:40:00;;;;;;;55.35;40.30;;;8.50;99.90;;;;;;5098901;28;20039;-63
2021/12/14 08:43:08;;;;;;;47.40;37.95;;;8.50;99.90;;;;;;5095102;28;20083;-63
2021/12/14 08:45:40;;;;;;;44.47;37.42;;;8.50;99.90;;;;;;5096217;28;20044;-63
2021/12/14 08:48:19;;;;;;;49.90;38.80;;;8.50;99.90;;;;;;5129590;27;20039;-63
2021/12/14 08:51:14;;;;;;;45.40;38.00;;;8.50;99.90;;;;;;5093903;28;20047;-63
2021/12/14 08:54:05;;;;;;;48.22;38.50;;;8.60;99.90;;;;;;5096592;28;20052;-63
2021/12/14 08:56:37;;;;;;;45.67;38.63;;;8.50;99.90;;;;;;5078218;28;20055;-63
2021/12/14 08:59:04;;;;;;;42.72;35.90;;;8.50;99.90;;;;;;5097223;27;20039;-63
2021/12/14 09:01:31;;;;;;;50.20;38.97;;;8.50;99.90;;;;;;5095240;28;20515;-63
2021/12/14 09:04:06;;;;;;;52.88;39.22;;;8.60;99.90;;;;;;5095592;28;20513;-63
2021/12/14 09:06:35;;;;;;;48.85;38.15;;;8.60;99.90;;;;;;5096421;27;20083;-63
2021/12/14 09:09:05;;;;;;;42.45;36.28;;;8.60;99.90;;;;;;5097496;28;20063;-63
2021/12/14 09:11:35;;;;;;;45.65;36.08;;;8.60;99.90;;;;;;5095393;28;20048;-63
2021/12/14 09:14:03;;;;;;;46.63;37.75;;;8.60;99.90;;;;;;5095523;28;20044;-63
2021/12/14 09:16:31;;;;;;;43.35;36.10;;;8.60;99.90;;;;;;5094573;28;20458;-63
2021/12/14 09:19:11;;;;;;;46.17;36.55;;;8.60;99.90;;;;;;5096000;28;20043;-63
2021/12/14 09:21:41;;;;;;;47.17;37.35;;;8.60;99.90;;;;;;5097679;28;20086;-63
2021/12/14 09:24:13;;;;;;;46.45;37.85;;;8.70;99.90;;;;;;5097108;27;20089;-63
2021/12/14 09:26:44;;;;;;;47.15;37.15;;;8.70;99.90;;;;;;5094760;28;20052;-63
2021/12/14 09:29:13;;;;;;;47.55;38.38;;;8.60;99.90;;;;;;5097557;28;20934;-63
2021/12/14 09:31:41;;;;;;;49.25;37.55;;;8.70;99.90;;;;;;5096605;28;20044;-63
2021/12/14 09:34:10;;;;;;;51.13;39.05;;;8.70;99.90;;;;;;5097299;27;20577;-63
2021/12/14 09:36:37;;;;;;;48.60;39.08;;;8.70;99.90;;;;;;5126892;27;20072;-63
2021/12/14 09:39:10;;;;;;;48.50;37.42;;;8.70;99.90;;;;;;5095632;28;20062;-63
2021/12/14 09:41:37;;;;;;;49.33;38.33;;;8.70;99.90;;;;;;5127988;27;20390;-63
2021/12/14 09:44:09;;;;;;;51.88;38.75;;;8.70;99.90;;;;;;5094551;28;20043;-63
2021/12/14 09:46:36;;;;;;;47.20;37.78;;;8.70;99.90;;;;;;5096065;28;20615;-63
2021/12/14 09:49:05;;;;;;;49.20;37.72;;;8.70;99.90;;;;;;5126298;27;20036;-63
2021/12/14 09:51:36;;;;;;;52.20;39.97;;;8.70;99.90;;;;;;5097799;28;20059;-63
2021/12/14 09:54:08;;;;;;;54.88;38.15;;;8.70;99.90;;;;;;5095101;28;20040;-63
2021/12/14 09:56:39;;;;;;;48.83;37.58;;;8.70;99.90;;;;;;5125979;27;20761;-63
2021/12/14 09:59:09;;;;;;;48.72;38.05;;;8.70;99.90;;;;;;5126190;27;20054;-64
2021/12/14 10:01:48;;;;;;;47.70;36.72;;;8.70;99.90;;;;;;5095410;27;20070;-63
2021/12/14 10:04:22;;;;;;;49.92;38.80;;;8.70;99.90;;;;;;5096754;28;20055;-63
2021/12/14 10:06:49;;;;;;;45.88;34.90;;;8.70;99.90;;;;;;5124733;27;20047;-63
2021/12/14 10:09:19;;;;;;;49.53;36.97;;;8.70;99.90;;;;;;5096324;28;20071;-63
2021/12/14 10:12:14;;;;;;;43.58;34.72;;;8.70;99.90;;;;;;5091905;28;20046;-63
2021/12/14 10:14:41;;;;;;;44.58;34.92;;;8.80;99.90;;;;;;5095033;28;20028;-63
2021/12/14 10:17:10;;;;;;;46.60;35.10;;;8.80;99.90;;;;;;5094376;27;20044;-63
2021/12/14 10:19:39;;;;;;;42.33;32.70;;;8.80;99.90;;;;;;5094592;28;20052;-63
2021/12/14 10:22:09;;;;;;;40.10;33.03;;;8.80;99.90;;;;;;5094418;28;20024;-63
2021/12/14 10:24:36;;;;;;;43.92;34.15;;;8.80;99.90;;;;;;5095183;28;20130;-64
2021/12/14 10:27:06;;;;;;;43.05;32.35;;;8.90;99.90;;;;;;5095603;28;20993;-64
2021/12/14 10:29:32;;;;;;;43.75;33.70;;;8.80;99.90;;;;;;5095721;28;20088;-63
2021/12/14 10:32:07;;;;;;;48.65;34.38;;;8.80;99.90;;;;;;5094688;28;20035;-63
2021/12/14 10:34:45;;;;;;;46.30;34.85;;;8.80;99.90;;;;;;5097311;28;20213;-63
2021/12/14 10:37:21;;;;;;;54.55;35.65;;;8.80;99.90;;;;;;5096513;28;20051;-63
2021/12/14 10:45:05;;;;;;;54.85;35.92;;;8.70;99.90;;;;;;5100638;28;20394;-63
2021/12/14 10:47:32;;;;;;;52.83;35.63;;;8.80;99.90;;;;;;5100351;28;20067;-63
2021/12/14 10:50:00;;;;;;;54.25;36.50;;;8.80;99.90;;;;;;5096470;28;20121;-63
2021/12/14 10:52:28;;;;;;;52.30;34.38;;;8.70;99.90;;;;;;5084260;28;20044;-63
2021/12/14 10:55:00;;;;;;;53.72;36.13;;;8.70;99.90;;;;;;5129581;27;20039;-63
2021/12/14 10:57:30;;;;;;;52.47;35.50;;;8.80;99.90;;;;;;5098591;28;20039;-63
2021/12/14 10:59:57;;;;;;;52.42;35.50;;;8.70;99.90;;;;;;5097476;28;20561;-63
2021/12/14 11:02:25;;;;;;;49.75;36.47;;;8.70;99.90;;;;;;5097127;28;20498;-63
2021/12/14 11:04:57;;;;;;;53.58;36.55;;;8.70;99.90;;;;;;5101990;28;20039;-63
2021/12/14 11:07:30;;;;;;;50.83;34.67;;;8.80;99.90;;;;;;5101459;28;20039;-63
2021/12/14 11:10:16;;;;;;;51.90;34.58;;;8.70;99.90;;;;;;5129982;27;20486;-63
2021/12/14 11:12:45;;;;;;;55.60;36.00;;;8.70;99.90;;;;;;5097432;28;20196;-63
2021/12/14 11:15:20;;;;;;;49.58;33.78;;;8.70;99.90;;;;;;5101108;28;20044;-63
2021/12/14 11:20:35;;;;;;;48.00;32.53;;;8.80;99.90;;;;;;5143188;27;20047;-63
2021/12/14 11:23:15;;;;;;;49.97;32.80;;;8.80;99.90;;;;;;5104746;28;20040;-63
2021/12/14 11:25:56;;;;;;;50.17;33.60;;;8.80;99.90;;;;;;5099886;28;20703;-63
2021/12/14 11:28:41;;;;;;;50.22;33.65;;;8.80;99.90;;;;;;5135059;27;20052;-63
2021/12/14 11:31:14;;;;;;;50.03;33.40;;;8.80;99.90;;;;;;5102023;27;20067;-63
2021/12/14 11:33:45;;;;;;;47.38;32.65;;;8.90;99.90;;;;;;5100313;28;20043;-63
2021/12/14 11:36:40;;;;;;;52.60;33.78;;;8.90;99.90;;;;;;5133997;27;20042;-63
2021/12/14 11:39:24;;;;;;;51.00;33.00;;;8.90;99.90;;;;;;5101872;28;20130;-63
2021/12/14 11:41:54;;;;;;;49.17;32.92;;;8.90;99.90;;;;;;5100775;28;20058;-63
2021/12/14 11:44:31;;;;;;;46.78;31.30;;;8.90;99.90;;;;;;5103121;28;20739;-63
2021/12/14 11:50:11;;;;;;;47.85;31.23;;;8.90;99.90;;;;;;5098020;28;20051;-63
2021/12/14 11:53:14;;;;;;;47.10;30.52;;;8.90;99.90;;;;;;5135118;27;20067;-63
2021/12/14 11:55:50;;;;;;;43.22;28.65;;;8.90;99.90;;;;;;5102140;28;20039;-64
2021/12/14 11:58:50;;;;;;;40.67;27.73;;;8.90;99.90;;;;;;5099542;28;20122;-63
2021/12/14 12:01:33;;;;;;;44.67;29.80;;;8.90;99.90;;;;;;5086827;28;20147;-63
2021/12/14 12:04:14;;;;;;;47.45;29.50;;;9.00;99.90;;;;;;5098338;27;20085;-63
2021/12/14 12:09:33;;;;;;;43.80;27.98;;;8.90;99.90;;;;;;5102144;27;20481;-63
2021/12/14 12:12:10;;;;;;;47.88;30.10;;;8.90;99.90;;;;;;5100525;28;20036;-63
2021/12/14 12:14:56;;;;;;;47.88;30.35;;;9.00;99.90;;;;;;5095901;28;20130;-63
2021/12/14 12:17:48;;;;;;;42.35;27.98;;;8.90;99.90;;;;;;5101778;27;20036;-63
2021/12/14 12:20:23;;;;;;;46.30;29.40;;;9.00;99.90;;;;;;5100496;28;20036;-63
2021/12/14 12:23:00;;;;;;;46.97;28.60;;;9.00;99.90;;;;;;5103374;28;20071;-63
2021/12/14 12:25:34;;;;;;;46.63;29.27;;;9.00;99.90;;;;;;5104809;28;20128;-63
2021/12/14 12:28:13;;;;;;;42.90;27.58;;;9.00;99.90;;;;;;5101048;27;20047;-63
2021/12/14 12:30:41;;;;;;;43.28;28.35;;;9.00;99.90;;;;;;5088119;28;20031;-63
2021/12/14 12:33:15;;;;;;;49.55;29.45;;;8.90;99.90;;;;;;5101411;28;20386;-63
2021/12/14 12:35:49;;;;;;;50.50;29.75;;;9.00;99.90;;;;;;5132858;27;20043;-63
2021/12/14 12:38:36;;;;;;;46.80;28.85;;;9.00;99.90;;;;;;5130264;27;20044;-63
2021/12/14 12:41:46;;;;;;;48.42;29.85;;;9.00;99.90;;;;;;5104143;28;20500;-63
2021/12/14 12:44:31;;;;;;;48.88;29.92;;;9.10;99.90;;;;;;5101392;28;20052;-63
2021/12/14 12:47:07;;;;;;;48.90;29.30;;;9.10;99.90;;;;;;5098520;28;20036;-63
2021/12/14 12:49:57;;;;;;;51.13;31.02;;;9.10;99.90;;;;;;5098034;28;20044;-63
2021/12/14 12:52:37;;;;;;;48.30;28.98;;;9.00;99.90;;;;;;5100392;27;20519;-63
2021/12/14 12:55:10;;;;;;;48.78;30.42;;;9.10;99.90;;;;;;5133458;27;20168;-63
2021/12/14 12:58:10;;;;;;;46.58;28.55;;;9.10;99.90;;;;;;5098642;28;20058;-63
2021/12/14 13:00:42;;;;;;;53.58;31.08;;;9.20;99.90;;;;;;5102552;28;20040;-63
2021/12/14 13:03:26;;;;;;;56.92;30.17;;;9.10;99.90;;;;;;5102783;27;20047;-64
2021/12/14 13:06:19;;;;;;;52.75;31.70;;;9.10;99.90;;;;;;5132738;27;20050;-63
2021/12/14 13:08:47;;;;;;;56.72;31.92;;;9.10;99.90;;;;;;5097683;28;20091;-63
2021/12/14 13:11:21;;;;;;;59.63;32.22;;;9.20;99.90;;;;;;5100301;28;20114;-63
2021/12/14 13:13:57;;;;;;;52.75;31.42;;;9.20;99.90;;;;;;5130743;27;20071;-63
2021/12/14 13:16:24;;;;;;;57.25;30.98;;;9.20;99.90;;;;;;5099519;27;20147;-63
2021/12/14 13:19:02;;;;;;;52.97;31.13;;;9.20;99.90;;;;;;5101011;28;20044;-63
2021/12/14 13:21:40;;;;;;;50.22;31.48;;;9.20;99.90;;;;;;5099435;28;20388;-63
2021/12/14 13:24:09;;;;;;;48.25;29.83;;;9.30;99.90;;;;;;5101180;28;20062;-63
2021/12/14 13:26:52;;;;;;;53.45;30.05;;;9.30;99.90;;;;;;5099039;28;20485;-63
2021/12/14 13:29:18;;;;;;;44.30;28.13;;;9.30;99.90;;;;;;5103858;28;20485;-63
2021/12/14 13:31:54;;;;;;;42.38;25.90;;;9.30;99.90;;;;;;5103919;27;20043;-63
2021/12/14 13:34:24;;;;;;;45.38;29.25;;;9.30;99.90;;;;;;5130594;27;20047;-63
2021/12/14 13:36:51;;;;;;;40.08;27.25;;;9.30;99.90;;;;;;5097348;28;20078;-63
2021/12/14 13:39:30;;;;;;;43.13;27.77;;;9.30;99.90;;;;;;5131074;27;20044;-63
2021/12/14 13:41:59;;;;;;;42.63;27.55;;;9.30;99.90;;;;;;5099113;28;20165;-63
2021/12/14 13:44:31;;;;;;;45.85;29.00;;;9.30;99.90;;;;;;5096530;28;20449;-63
2021/12/14 13:46:59;;;;;;;41.22;25.65;;;9.30;99.90;;;;;;5097607;28;20482;-63